Terminal Aerodrome Forecast
Issued by NWS

Home | Current Version | Previous Version | Text Only | Print | Product List | Glossary On
Versions: 1 2 3 4 5 6 7 8 9 10 11 12
047
FTUS44 KEPZ 140541
TAFTCS
TAF
KTCS 140541Z 1406/1506 33008KT P6SM SCT250
     FM142100 15007KT P6SM SCT250
     FM150400 30006KT P6SM SCT250=

USA.gov is the U.S. government's official web portal to all federal, state and local government web resources and services.